Time;durP1;ratioP1;P1;durP2;ratioP2;P2;SDS_P1;SDS_P2;PMS_P1;PMS_P2;Temp;Humidity;BMP_temperature;BMP_pressure;BME280_temperature;BME280_humidity;BME280_pressure;Samples;Min_cycle;Max_cycle;Signal;HPM_P1;HPM_P2
2022/12/05 00:00:24;;;;;;;15.90;12.32;;;;;;;3.06;90.84;99168.03;5107450;28;20139;-73
2022/12/05 00:02:51;;;;;;;19.80;13.40;;;;;;;3.04;90.93;99175.06;5108807;28;20048;-73
2022/12/05 00:05:18;;;;;;;17.10;12.65;;;;;;;2.80;90.98;99134.72;5108238;28;20133;-73
2022/12/05 00:07:44;;;;;;;18.15;12.80;;;;;;;3.02;90.97;99184.72;5108487;28;20115;-74
2022/12/05 00:10:12;;;;;;;19.05;12.43;;;;;;;3.02;90.93;99179.47;5107581;28;20048;-73
2022/12/05 00:12:40;;;;;;;19.13;12.95;;;;;;;2.90;90.93;99158.88;5108328;28;20040;-73
2022/12/05 00:15:17;;;;;;;21.65;13.95;;;;;;;2.69;90.82;99118.44;5113234;28;20040;-73
2022/12/05 00:17:43;;;;;;;21.50;14.48;;;;;;;3.05;90.83;99176.78;5110219;28;20044;-74
2022/12/05 00:20:11;;;;;;;21.45;13.85;;;;;;;3.06;90.82;99191.59;5107872;28;20284;-73
2022/12/05 00:22:38;;;;;;;17.40;12.38;;;;;;;2.68;90.90;99113.25;5108364;28;20055;-73
2022/12/05 00:25:07;;;;;;;18.80;13.30;;;;;;;3.04;91.01;99180.31;5106907;28;20047;-72
2022/12/05 00:27:34;;;;;;;22.85;14.18;;;;;;;3.02;91.11;99170.78;5107736;28;20051;-73
2022/12/05 00:30:02;;;;;;;24.67;15.20;;;;;;;3.01;91.12;99179.53;5106777;28;20044;-72
2022/12/05 00:32:29;;;;;;;19.80;13.27;;;;;;;3.03;91.12;99182.97;5108109;28;20066;-72
2022/12/05 00:34:56;;;;;;;23.33;14.90;;;;;;;3.03;91.08;99182.97;5106688;28;20040;-73
2022/12/05 00:37:23;;;;;;;19.13;13.07;;;;;;;2.77;91.20;99145.25;5108039;28;20055;-73
2022/12/05 00:39:50;;;;;;;17.95;13.10;;;;;;;3.02;91.34;99179.47;5108006;28;20055;-73
2022/12/05 00:42:17;;;;;;;21.77;14.77;;;;;;;2.34;91.22;99061.84;5106830;28;20184;-73
2022/12/05 00:44:44;;;;;;;19.63;12.60;;;;;;;3.04;91.27;99171.59;5107838;28;20047;-74
2022/12/05 00:47:12;;;;;;;21.98;14.35;;;;;;;3.05;91.25;99168.06;5106558;28;20296;-73
2022/12/05 00:49:39;;;;;;;21.27;13.55;;;;;;;2.72;91.36;99120.13;5107306;28;20052;-74
2022/12/05 00:52:05;;;;;;;19.67;14.25;;;;;;;3.01;91.42;99179.53;5106527;28;20165;-74
2022/12/05 00:54:32;;;;;;;19.25;12.73;;;;;;;3.01;91.47;99190.00;5106600;28;20215;-73
2022/12/05 00:56:59;;;;;;;19.25;13.60;;;;;;;3.03;91.37;99181.19;5107383;28;20090;-73
2022/12/05 00:59:26;;;;;;;22.67;14.50;;;;;;;3.04;91.32;99188.16;5106995;28;20097;-72
2022/12/05 01:01:54;;;;;;;22.00;14.60;;;;;;;3.03;91.29;99189.06;5106327;28;20040;-74
2022/12/05 01:04:23;;;;;;;20.92;13.90;;;;;;;1.93;91.08;99017.63;5106855;28;20055;-71
2022/12/05 01:06:53;;;;;;;20.63;12.50;;;;;;;2.54;91.43;99121.47;5106953;28;20040;-73
2022/12/05 01:09:21;;;;;;;20.13;13.30;;;;;;;2.91;91.05;99157.97;5106034;28;20044;-72
2022/12/05 01:11:48;;;;;;;16.95;12.13;;;;;;;3.07;91.09;99193.31;5107089;28;20055;-73
2022/12/05 01:14:19;;;;;;;19.83;13.13;;;;;;;2.37;90.89;99073.97;5105841;28;20035;-72
2022/12/05 01:16:48;;;;;;;15.27;12.10;;;;;;;3.07;90.89;99189.81;5106925;28;20044;-72
2022/12/05 01:19:17;;;;;;;18.60;11.93;;;;;;;3.06;90.79;99194.22;5106942;28;20097;-73
2022/12/05 01:21:46;;;;;;;19.90;13.63;;;;;;;3.07;90.80;99180.22;5106345;28;20040;-73
2022/12/05 01:24:14;;;;;;;18.10;13.00;;;;;;;3.06;90.64;99188.09;5107400;28;20089;-73
2022/12/05 01:26:42;;;;;;;15.35;11.95;;;;;;;3.06;90.50;99180.25;5106800;28;20044;-73
2022/12/05 01:29:10;;;;;;;15.50;11.63;;;;;;;3.09;90.48;99177.56;5106365;28;20107;-73
2022/12/05 01:31:37;;;;;;;16.20;12.45;;;;;;;3.09;90.54;99185.41;5106695;28;20044;-72
2022/12/05 01:34:07;;;;;;;14.40;10.68;;;;;;;2.92;90.33;99177.16;5106128;28;20036;-72
2022/12/05 01:36:34;;;;;;;15.00;11.35;;;;;;;3.12;90.07;99186.19;5106691;28;20040;-73
2022/12/05 01:39:04;;;;;;;15.98;11.32;;;;;;;3.12;90.02;99167.00;5105805;28;20048;-72
2022/12/05 01:41:34;;;;;;;15.88;11.68;;;;;;;3.14;89.85;99165.19;5105935;28;20062;-73
2022/12/05 01:44:04;;;;;;;15.20;11.45;;;;;;;3.13;89.83;99161.72;5105572;28;20189;-73
2022/12/05 01:46:33;;;;;;;14.32;10.43;;;;;;;3.13;89.76;99181.81;5105519;28;20248;-73
2022/12/05 01:49:05;;;;;;;14.63;10.40;;;;;;;3.12;89.58;99188.81;5106472;28;20314;-74
2022/12/05 01:51:33;;;;;;;14.80;10.57;;;;;;;3.12;89.48;99180.09;5106161;28;20064;-73
2022/12/05 01:54:02;;;;;;;15.15;10.85;;;;;;;2.99;89.55;99157.75;5106065;28;20085;-74
2022/12/05 01:56:31;;;;;;;16.67;10.35;;;;;;;3.13;89.32;99172.19;5106396;28;20048;-73
2022/12/05 01:58:59;;;;;;;13.00;10.10;;;;;;;3.18;89.29;99177.28;5106007;28;20086;-74
2022/12/05 02:01:26;;;;;;;14.48;9.98;;;;;;;3.18;89.17;99169.44;5106275;28;20300;-74
2022/12/05 02:03:57;;;;;;;13.82;10.00;;;;;;;3.03;89.24;99144.53;5105156;28;20036;-73
2022/12/05 02:06:25;;;;;;;14.55;11.88;;;;;;;2.91;89.13;99118.72;5105094;28;20067;-74
2022/12/05 02:08:53;;;;;;;14.05;10.57;;;;;;;3.20;88.96;99165.88;5105347;28;20039;-73
2022/12/05 02:11:23;;;;;;;14.05;10.23;;;;;;;3.21;88.86;99185.06;5104983;28;20303;-73
2022/12/05 02:14:07;;;;;;;14.25;10.85;;;;;;;3.24;88.88;99165.78;5106088;28;20102;-73
2022/12/05 02:16:47;;;;;;;16.48;11.40;;;;;;;3.23;88.94;99166.69;5105803;28;20040;-73
2022/12/05 02:19:55;;;;;;;14.77;11.38;;;;;;;3.25;88.73;99175.38;5105254;28;20089;-73
2022/12/05 02:22:53;;;;;;;14.68;11.32;;;;;;;3.25;88.74;99184.06;5106137;28;20043;-73
2022/12/05 02:25:52;;;;;;;12.75;10.02;;;;;;;3.26;88.56;99175.31;5105685;28;20192;-73
2022/12/05 02:28:44;;;;;;;13.07;9.75;;;;;;;2.27;88.46;99014.97;5105668;28;20048;-74
2022/12/05 02:31:17;;;;;;;13.38;9.82;;;;;;;3.12;88.65;99151.28;5106186;28;20052;-73
2022/12/05 02:33:48;;;;;;;17.17;11.68;;;;;;;3.30;88.81;99170.84;5107440;28;20063;-74
2022/12/05 02:36:22;;;;;;;14.25;10.27;;;;;;;3.31;88.63;99180.44;5110224;28;20040;-74
2022/12/05 02:38:56;;;;;;;17.27;11.00;;;;;;;3.31;88.40;99165.56;5109183;28;20250;-74
2022/12/05 02:41:31;;;;;;;13.88;10.55;;;;;;;3.29;88.41;99164.75;5108740;28;20048;-73
2022/12/05 02:44:03;;;;;;;14.45;11.02;;;;;;;3.28;88.56;99170.91;5109960;28;20043;-73
2022/12/05 02:46:35;;;;;;;16.05;10.98;;;;;;;3.30;88.52;99173.47;5109623;28;20048;-74
2022/12/05 02:49:07;;;;;;;14.65;10.73;;;;;;;3.08;88.34;99132.19;5110109;28;20279;-74
2022/12/05 02:51:39;;;;;;;16.10;10.88;;;;;;;3.10;88.34;99127.75;5108835;28;20059;-74
2022/12/05 02:54:10;;;;;;;12.73;10.82;;;;;;;3.30;88.25;99168.22;5109640;28;20291;-75
2022/12/05 02:56:37;;;;;;;16.92;12.43;;;;;;;3.28;88.36;99157.81;5109979;28;20199;-74
2022/12/05 02:59:04;;;;;;;13.60;10.13;;;;;;;3.31;88.29;99176.03;5109568;28;20051;-74
2022/12/05 03:01:33;;;;;;;40.38;23.83;;;;;;;3.36;88.88;99187.25;5108499;28;20085;-74
2022/12/05 03:04:02;;;;;;;32.88;19.58;;;;;;;3.42;88.96;99178.34;5109339;28;20052;-74
2022/12/05 03:06:32;;;;;;;16.63;11.82;;;;;;;2.91;88.50;99102.16;5108470;28;20036;-74
2022/12/05 03:09:02;;;;;;;14.75;11.80;;;;;;;3.38;88.35;99188.06;5109503;28;20047;-74
2022/12/05 03:11:34;;;;;;;13.38;9.50;;;;;;;3.34;88.08;99178.56;5109667;28;20162;-74
2022/12/05 03:14:05;;;;;;;16.63;11.00;;;;;;;3.30;87.78;99170.84;5108273;28;20048;-74
2022/12/05 03:16:41;;;;;;;13.43;10.70;;;;;;;3.28;87.79;99170.03;5108231;28;20315;-74
2022/12/05 03:19:13;;;;;;;11.75;9.95;;;;;;;3.25;87.87;99168.38;5108975;28;20238;-74
2022/12/05 03:21:47;;;;;;;12.80;9.93;;;;;;;3.23;87.90;99174.53;5109062;28;20296;-74
2022/12/05 03:24:15;;;;;;;13.88;9.35;;;;;;;3.24;87.89;99176.25;5108058;28;20040;-74
2022/12/05 03:26:55;;;;;;;14.35;10.15;;;;;;;3.19;87.88;99198.22;5109137;28;20036;-76
2022/12/05 03:29:29;;;;;;;12.82;9.45;;;;;;;2.35;87.90;99052.22;5108819;28;20090;-77
2022/12/05 03:32:07;;;;;;;12.48;9.23;;;;;;;3.15;87.57;99193.94;5108803;28;20085;-74
2022/12/05 03:34:45;;;;;;;12.73;10.23;;;;;;;3.15;87.80;99190.47;5108677;28;20048;-74
2022/12/05 03:37:19;;;;;;;12.93;9.77;;;;;;;3.13;87.76;99184.41;5108379;28;20047;-74
2022/12/05 03:39:53;;;;;;;11.77;9.07;;;;;;;3.11;87.81;99186.22;5108644;28;20071;-75
2022/12/05 03:42:28;;;;;;;13.32;10.02;;;;;;;3.11;87.65;99196.69;5108820;28;20051;-74
2022/12/05 03:45:01;;;;;;;13.23;10.25;;;;;;;3.09;87.77;99203.75;5108459;28;20059;-74
2022/12/05 03:47:36;;;;;;;11.48;10.18;;;;;;;3.09;87.83;99208.97;5107666;28;20201;-74
2022/12/05 03:50:10;;;;;;;12.98;10.70;;;;;;;3.07;87.83;99195.94;5108659;28;20043;-73
2022/12/05 03:52:44;;;;;;;14.90;10.43;;;;;;;3.06;87.86;99195.97;5107234;28;20315;-74
2022/12/05 03:55:13;;;;;;;13.13;9.93;;;;;;;2.92;87.81;99172.78;5108242;28;20048;-74
2022/12/05 03:57:46;;;;;;;13.40;9.98;;;;;;;3.07;87.92;99187.22;5107442;28;20054;-74
2022/12/05 04:00:18;;;;;;;13.35;9.15;;;;;;;3.07;87.79;99206.41;5107372;28;20044;-73
2022/12/05 04:02:53;;;;;;;12.07;9.18;;;;;;;3.06;87.78;99202.06;5108450;28;20211;-73
2022/12/05 04:05:24;;;;;;;11.80;9.88;;;;;;;3.07;87.68;99202.91;5108067;28;20059;-74
2022/12/05 04:07:58;;;;;;;14.52;10.43;;;;;;;2.92;87.70;99178.00;5107780;28;20044;-74
2022/12/05 04:10:28;;;;;;;13.20;10.68;;;;;;;3.07;87.61;99208.16;5108289;28;20306;-74
2022/12/05 04:12:58;;;;;;;11.30;9.63;;;;;;;3.07;87.61;99221.25;5107128;28;20040;-73
2022/12/05 04:17:02;;;;;;;14.85;10.40;;;;;;;3.05;87.69;99226.53;5107819;28;20095;-74
2022/12/05 04:18:23;;;;;;;13.20;10.32;;;;;;;3.04;87.70;99232.66;5107566;28;20115;-74
2022/12/05 04:23:35;;;;;;;12.85;10.18;;;;;;;2.72;87.60;99188.16;5107031;28;20047;-74
2022/12/05 04:26:10;;;;;;;12.95;8.98;;;;;;;3.03;87.54;99243.19;5107550;28;20052;-74
2022/12/05 04:28:45;;;;;;;12.27;9.35;;;;;;;3.02;87.61;99231.00;5107650;28;20115;-74
2022/12/05 04:31:16;;;;;;;13.65;11.38;;;;;;;3.02;87.48;99231.84;5106762;28;20090;-74
2022/12/05 04:33:49;;;;;;;13.02;8.73;;;;;;;3.04;87.49;99237.03;5107806;28;20055;-74
2022/12/05 04:36:21;;;;;;;12.05;8.98;;;;;;;3.03;87.43;99236.19;5107398;28;20040;-74
2022/12/05 04:38:52;;;;;;;11.48;8.90;;;;;;;3.02;87.42;99234.47;5107471;28;20040;-74
2022/12/05 04:41:24;;;;;;;12.90;9.50;;;;;;;2.89;87.35;99222.59;5107991;28;20051;-74
2022/12/05 04:43:54;;;;;;;12.07;8.52;;;;;;;3.03;87.55;99237.94;5107854;28;20040;-74
2022/12/05 04:46:23;;;;;;;13.15;10.23;;;;;;;3.01;87.39;99234.50;5107327;28;20231;-74
2022/12/05 04:48:56;;;;;;;13.40;8.95;;;;;;;3.01;87.14;99237.13;5106420;28;20043;-74
2022/12/05 04:51:26;;;;;;;14.73;11.00;;;;;;;3.01;87.37;99242.34;5107146;28;20063;-74
2022/12/05 04:54:03;;;;;;;13.73;10.40;;;;;;;3.03;87.45;99251.03;5107646;28;20059;-74
2022/12/05 04:56:34;;;;;;;11.90;9.18;;;;;;;3.01;87.40;99252.84;5088801;28;20044;-74
2022/12/05 04:59:01;;;;;;;12.85;9.80;;;;;;;3.01;87.46;99255.44;5107287;28;20051;-74
2022/12/05 05:01:34;;;;;;;14.73;9.88;;;;;;;2.99;87.22;99257.25;5107550;28;20044;-74
2022/12/05 05:04:08;;;;;;;12.23;9.32;;;;;;;2.97;87.19;99259.91;5106941;28;20055;-74
2022/12/05 05:06:37;;;;;;;12.68;9.25;;;;;;;2.94;87.30;99249.50;5106957;28;20040;-74
2022/12/05 05:09:05;;;;;;;12.95;9.65;;;;;;;2.94;87.18;99251.28;5106716;28;20364;-74
2022/12/05 05:11:33;;;;;;;13.25;11.18;;;;;;;2.93;87.09;99258.28;5106004;28;20044;-74
2022/12/05 05:14:00;;;;;;;10.95;9.10;;;;;;;2.39;87.09;99193.34;5107036;28;20097;-74
2022/12/05 05:16:29;;;;;;;11.93;9.02;;;;;;;2.36;87.15;99185.56;5105806;28;20214;-74
2022/12/05 05:18:56;;;;;;;14.70;10.32;;;;;;;2.83;87.39;99264.63;5105844;28;20032;-74
2022/12/05 05:21:27;;;;;;;13.65;10.00;;;;;;;2.73;87.34;99235.22;5106894;28;20040;-74
2022/12/05 05:23:54;;;;;;;12.43;9.63;;;;;;;2.85;87.39;99255.00;5105706;28;20047;-74
2022/12/05 05:26:22;;;;;;;11.50;8.70;;;;;;;2.65;87.37;99218.84;5106528;28;20081;-74
2022/12/05 05:28:49;;;;;;;12.70;9.57;;;;;;;2.86;87.27;99262.81;5106506;28;20048;-74
2022/12/05 05:31:16;;;;;;;16.08;10.63;;;;;;;2.87;87.37;99266.28;5106361;28;20234;-74
2022/12/05 05:33:44;;;;;;;13.23;10.10;;;;;;;2.87;87.05;99267.13;5106598;28;20052;-74
2022/12/05 05:36:13;;;;;;;15.65;10.48;;;;;;;2.36;87.24;99176.88;5105354;28;20047;-74
2022/12/05 05:38:43;;;;;;;13.57;9.68;;;;;;;2.88;87.27;99271.47;5105449;28;20040;-74
2022/12/05 05:41:13;;;;;;;13.52;10.18;;;;;;;2.39;87.27;99187.25;5106209;28;20207;-74
2022/12/05 05:43:40;;;;;;;12.80;9.63;;;;;;;2.93;87.23;99280.97;5106516;28;20043;-74
2022/12/05 05:46:06;;;;;;;11.77;9.55;;;;;;;2.92;87.15;99280.09;5105584;28;20036;-74
2022/12/05 05:48:36;;;;;;;12.65;9.85;;;;;;;2.94;87.26;99293.16;5106104;28;20039;-74
2022/12/05 05:51:04;;;;;;;13.82;10.65;;;;;;;2.94;87.20;99288.78;5104852;28;20151;-74
2022/12/05 05:53:31;;;;;;;12.77;10.68;;;;;;;2.75;87.27;99250.88;5106296;28;20044;-74
2022/12/05 05:56:03;;;;;;;13.05;11.13;;;;;;;2.96;87.17;99302.69;5106477;28;20044;-74
2022/12/05 05:58:30;;;;;;;13.13;10.50;;;;;;;2.29;87.16;99201.44;5105131;28;20039;-74
2022/12/05 06:01:03;;;;;;;13.95;11.60;;;;;;;2.96;87.20;99309.69;5105058;28;20036;-74
2022/12/05 06:03:29;;;;;;;13.32;10.90;;;;;;;2.93;87.25;99309.75;5106009;28;20089;-74
2022/12/05 06:05:57;;;;;;;13.75;10.15;;;;;;;2.93;87.34;99308.00;5106115;28;20346;-74
2022/12/05 06:08:24;;;;;;;14.88;10.40;;;;;;;2.86;87.31;99291.59;5104024;28;20215;-75
2022/12/05 06:10:51;;;;;;;13.32;9.73;;;;;;;2.95;87.32;99297.50;5106018;28;20054;-74
2022/12/05 06:13:19;;;;;;;12.38;10.15;;;;;;;2.95;87.33;99302.72;5105642;28;20040;-74
2022/12/05 06:15:46;;;;;;;13.35;10.70;;;;;;;2.93;87.45;99296.69;5106241;28;20051;-74
2022/12/05 06:18:12;;;;;;;12.30;9.70;;;;;;;2.87;87.25;99287.22;5105575;28;20051;-74
2022/12/05 06:20:39;;;;;;;12.52;9.57;;;;;;;2.95;87.42;99306.22;5105954;28;20089;-74
2022/12/05 06:23:06;;;;;;;11.88;9.18;;;;;;;2.75;87.35;99275.28;5106197;28;20058;-74
2022/12/05 06:25:33;;;;;;;13.38;9.65;;;;;;;2.93;87.32;99296.69;5105566;28;20063;-74
2022/12/05 06:27:59;;;;;;;12.85;9.73;;;;;;;2.93;87.40;99307.16;5105569;28;20040;-76
2022/12/05 06:30:28;;;;;;;13.00;9.52;;;;;;;2.93;87.41;99312.38;5106033;28;20060;-74
2022/12/05 06:32:55;;;;;;;14.23;11.93;;;;;;;2.91;87.41;99306.31;5105796;28;20044;-74
2022/12/05 06:35:21;;;;;;;12.68;9.75;;;;;;;2.88;87.44;99313.34;5104618;28;20039;-74
2022/12/05 06:37:48;;;;;;;14.18;9.55;;;;;;;2.86;87.41;99315.16;5089089;28;20089;-74
2022/12/05 06:40:15;;;;;;;13.23;9.60;;;;;;;2.87;87.67;99319.50;5104768;28;20044;-74
2022/12/05 06:42:42;;;;;;;14.95;9.82;;;;;;;2.88;87.57;99329.06;5105259;28;20040;-74
2022/12/05 06:45:10;;;;;;;15.63;11.13;;;;;;;2.91;87.60;99322.03;5105891;28;20051;-74
2022/12/05 06:47:38;;;;;;;16.98;11.23;;;;;;;2.92;87.60;99324.63;5105729;28;20075;-74
2022/12/05 06:50:06;;;;;;;14.73;11.93;;;;;;;1.83;87.48;99138.06;5105433;28;20327;-74
2022/12/05 06:52:33;;;;;;;15.38;10.57;;;;;;;2.95;87.64;99326.28;5104550;28;20070;-74
2022/12/05 06:54:59;;;;;;;17.20;12.23;;;;;;;2.96;87.53;99336.72;5105307;28;20044;-74
2022/12/05 06:57:28;;;;;;;16.52;11.27;;;;;;;2.84;87.52;99353.59;5105191;28;20299;-74
2022/12/05 07:01:37;;;;;;;17.70;11.43;;;;;;;2.95;87.62;99337.63;5105483;28;20040;-74
2022/12/05 07:02:43;;;;;;;14.50;10.15;;;;;;;2.95;87.69;99344.63;5105131;28;20119;-74
2022/12/05 07:05:10;;;;;;;17.17;11.55;;;;;;;2.98;87.61;99341.94;5104356;28;20036;-74
2022/12/05 07:07:37;;;;;;;17.77;12.32;;;;;;;2.98;87.61;99355.88;5105497;28;20039;-74
2022/12/05 07:10:06;;;;;;;16.83;11.80;;;;;;;2.98;87.58;99357.63;5104418;28;20113;-74
2022/12/05 07:12:33;;;;;;;17.10;11.65;;;;;;;2.97;87.68;99348.06;5105253;28;20097;-74
2022/12/05 07:15:00;;;;;;;15.20;11.25;;;;;;;2.98;87.80;99350.63;5104371;28;20064;-74
2022/12/05 07:17:27;;;;;;;15.85;11.30;;;;;;;2.99;87.72;99348.88;5105342;28;20036;-74
2022/12/05 07:19:56;;;;;;;16.58;11.27;;;;;;;2.86;87.73;99328.25;5107188;28;20036;-74
2022/12/05 07:22:23;;;;;;;16.70;11.52;;;;;;;2.99;87.69;99354.97;5091272;28;20058;-74
2022/12/05 07:24:51;;;;;;;15.30;11.23;;;;;;;2.31;87.76;99237.13;5109472;28;20044;-74
2022/12/05 07:27:19;;;;;;;17.90;11.23;;;;;;;3.01;87.77;99353.19;5108023;28;20040;-74
2022/12/05 07:29:45;;;;;;;17.50;12.82;;;;;;;3.03;87.80;99351.38;5107854;28;20058;-74
2022/12/05 07:32:12;;;;;;;18.98;11.65;;;;;;;3.04;87.87;99345.25;5109287;28;20055;-74
2022/12/05 07:34:41;;;;;;;17.92;12.63;;;;;;;2.74;87.66;99301.50;5108411;28;20086;-74
2022/12/05 07:37:09;;;;;;;34.95;13.90;;;;;;;3.08;87.81;99365.22;5108491;28;20044;-74
2022/12/05 07:39:36;;;;;;;17.83;11.93;;;;;;;3.07;87.82;99370.50;5109119;28;20052;-74
2022/12/05 07:42:03;;;;;;;15.25;12.52;;;;;;;3.08;87.80;99374.84;5108754;28;20098;-74
2022/12/05 07:44:30;;;;;;;18.33;11.88;;;;;;;3.07;87.87;99383.59;5108466;28;20097;-74
2022/12/05 07:46:57;;;;;;;18.05;12.00;;;;;;;3.07;87.88;99380.97;5109056;28;20048;-74
2022/12/05 07:49:24;;;;;;;17.98;11.70;;;;;;;2.54;87.80;99297.63;5108657;28;20089;-75
2022/12/05 07:51:52;;;;;;;20.55;12.13;;;;;;;3.06;88.00;99382.72;5107436;28;20063;-74
2022/12/05 07:54:20;;;;;;;21.75;14.55;;;;;;;3.05;88.03;99382.78;5107581;28;20273;-73
2022/12/05 07:56:46;;;;;;;18.48;11.88;;;;;;;3.04;88.04;99388.91;5108997;28;20044;-74
2022/12/05 07:59:13;;;;;;;18.13;12.65;;;;;;;3.01;88.10;99371.50;5107875;28;20177;-75
2022/12/05 08:01:40;;;;;;;18.13;11.73;;;;;;;2.90;88.34;99357.81;5108585;28;20092;-74
2022/12/05 08:04:06;;;;;;;20.20;12.65;;;;;;;3.01;88.27;99371.50;5107054;28;20295;-74
2022/12/05 08:06:33;;;;;;;19.50;14.60;;;;;;;3.03;88.45;99392.41;5108269;28;20040;-74
2022/12/05 08:09:00;;;;;;;21.17;12.80;;;;;;;3.02;88.38;99382.84;5107921;28;20058;-74
2022/12/05 08:11:30;;;;;;;19.23;12.95;;;;;;;3.03;88.47;99387.19;5107814;28;20035;-74
2022/12/05 08:13:58;;;;;;;20.38;14.80;;;;;;;3.04;88.41;99381.06;5106780;28;20214;-74
2022/12/05 08:16:26;;;;;;;17.30;12.40;;;;;;;2.80;88.41;99340.63;5108206;28;20047;-74
2022/12/05 08:18:55;;;;;;;19.45;13.35;;;;;;;2.90;88.41;99365.66;5107053;28;20044;-74
2022/12/05 08:21:24;;;;;;;17.25;12.65;;;;;;;3.06;88.51;99392.34;5107197;28;20036;-74
2022/12/05 08:23:51;;;;;;;21.40;12.70;;;;;;;3.08;88.44;99387.94;5108284;28;20048;-74
2022/12/05 08:26:20;;;;;;;18.88;12.68;;;;;;;3.09;88.55;99401.00;5107632;28;20047;-74
2022/12/05 08:28:51;;;;;;;22.55;13.45;;;;;;;3.07;88.50;99387.06;5106710;28;20082;-74
2022/12/05 08:31:20;;;;;;;21.67;13.00;;;;;;;3.08;88.58;99385.31;5107060;28;20044;-74
2022/12/05 08:33:46;;;;;;;20.13;13.27;;;;;;;2.51;88.42;99289.84;5107940;28;20051;-74
2022/12/05 08:36:15;;;;;;;20.73;14.07;;;;;;;3.09;88.52;99389.66;5107250;28;20129;-74
2022/12/05 08:38:42;;;;;;;24.45;13.50;;;;;;;3.11;88.59;99406.19;5106487;28;20044;-74
2022/12/05 08:41:11;;;;;;;18.52;12.95;;;;;;;2.94;88.50;99382.16;5107674;28;20040;-74
2022/12/05 08:43:38;;;;;;;21.17;13.32;;;;;;;3.12;88.60;99402.69;5106465;28;20044;-74
2022/12/05 08:46:06;;;;;;;24.27;13.45;;;;;;;3.14;88.49;99411.34;5107518;28;20093;-74
2022/12/05 08:48:34;;;;;;;21.15;13.38;;;;;;;2.65;88.56;99349.69;5106178;28;20088;-74
2022/12/05 08:51:05;;;;;;;21.55;13.85;;;;;;;3.15;88.73;99405.22;5106081;28;20055;-74
2022/12/05 08:53:32;;;;;;;23.13;13.95;;;;;;;3.16;88.81;99407.81;5107357;28;20189;-74
2022/12/05 08:56:00;;;;;;;21.38;15.85;;;;;;;3.00;88.71;99382.03;5106772;28;20209;-74
2022/12/05 08:58:27;;;;;;;23.40;13.98;;;;;;;3.22;88.62;99417.25;5107527;28;20044;-74
2022/12/05 09:00:54;;;;;;;22.08;14.05;;;;;;;3.24;88.66;99412.84;5106671;28;20227;-74
2022/12/05 09:03:23;;;;;;;22.05;13.73;;;;;;;3.24;88.66;99410.22;5105935;28;20093;-74
2022/12/05 09:05:50;;;;;;;21.10;14.18;;;;;;;3.23;88.75;99410.28;5107222;28;20044;-74
2022/12/05 09:08:16;;;;;;;20.77;14.63;;;;;;;2.44;88.54;99293.50;5105852;28;20300;-74
2022/12/05 09:10:43;;;;;;;19.45;12.98;;;;;;;3.24;88.89;99420.72;5106897;28;20195;-74
2022/12/05 09:13:12;;;;;;;23.55;14.30;;;;;;;3.26;88.75;99412.81;5107088;28;20044;-74
2022/12/05 09:15:39;;;;;;;22.33;14.07;;;;;;;3.29;88.75;99431.94;5105826;28;20080;-74
2022/12/05 09:18:06;;;;;;;20.63;14.90;;;;;;;3.25;88.77;99406.72;5105673;28;20036;-74
2022/12/05 09:20:34;;;;;;;22.33;13.95;;;;;;;3.15;88.70;99386.88;5105712;28;20081;-74
2022/12/05 09:23:01;;;;;;;19.83;13.32;;;;;;;3.29;88.67;99410.97;5106700;28;20304;-74
2022/12/05 09:25:28;;;;;;;19.48;12.52;;;;;;;2.98;88.55;99368.09;5105789;28;20047;-74
2022/12/05 09:27:55;;;;;;;21.58;13.15;;;;;;;3.31;88.70;99411.78;5105585;28;20173;-74
2022/12/05 09:30:21;;;;;;;45.30;19.73;;;;;;;3.31;88.69;99417.03;5106278;28;20215;-73
2022/12/05 09:32:48;;;;;;;23.60;13.07;;;;;;;3.00;88.65;99358.47;5105643;28;20318;-74
2022/12/05 09:35:16;;;;;;;25.35;13.27;;;;;;;3.35;88.53;99415.22;5106388;28;20098;-74
2022/12/05 09:37:44;;;;;;;22.35;12.75;;;;;;;3.33;88.60;99407.38;5105454;28;20040;-74
2022/12/05 09:40:16;;;;;;;21.80;12.98;;;;;;;3.32;88.57;99405.66;5105464;28;20040;-74
2022/12/05 09:42:54;;;;;;;19.20;11.80;;;;;;;3.32;88.50;99408.28;5106196;28;20051;-74
2022/12/05 09:45:25;;;;;;;18.55;13.43;;;;;;;3.08;88.45;99370.47;5105390;28;20127;-74
2022/12/05 09:47:58;;;;;;;19.17;13.10;;;;;;;3.36;88.38;99404.69;5105352;28;20296;-74
2022/12/05 09:50:29;;;;;;;19.08;13.38;;;;;;;3.37;88.44;99411.66;5106513;28;20044;-74
2022/12/05 09:53:06;;;;;;;20.02;13.27;;;;;;;3.20;88.23;99382.41;5105912;28;20056;-74
2022/12/05 09:55:42;;;;;;;19.60;12.63;;;;;;;2.85;88.35;99333.50;5106102;28;20040;-74
2022/12/05 09:58:20;;;;;;;21.90;14.52;;;;;;;3.38;88.40;99415.13;5105913;28;20228;-74
2022/12/05 10:00:49;;;;;;;22.42;13.55;;;;;;;3.40;88.32;99413.34;5105095;28;20235;-74
2022/12/05 10:03:25;;;;;;;18.33;13.00;;;;;;;3.22;88.28;99385.84;5106010;28;20055;-74
2022/12/05 10:06:02;;;;;;;19.23;11.98;;;;;;;3.44;88.28;99425.44;5105847;28;20043;-74
2022/12/05 10:08:40;;;;;;;22.60;14.75;;;;;;;0.23;87.93;98883.22;5106154;28;20044;-74
2022/12/05 10:11:15;;;;;;;19.75;13.27;;;;;;;3.46;88.43;99431.50;5106394;28;20070;-74
2022/12/05 10:13:52;;;;;;;21.45;13.95;;;;;;;3.47;88.26;99423.63;5105803;28;20067;-74
2022/12/05 10:16:32;;;;;;;22.27;14.35;;;;;;;3.49;88.17;99423.56;5106028;28;20044;-74
2022/12/05 10:19:05;;;;;;;20.52;12.02;;;;;;;3.49;88.12;99415.72;5104905;28;20044;-74
2022/12/05 10:21:37;;;;;;;23.80;13.95;;;;;;;3.49;88.17;99424.44;5106080;28;20102;-74
2022/12/05 10:24:12;;;;;;;23.85;14.38;;;;;;;0.31;87.47;98890.03;5105349;28;20067;-74
2022/12/05 10:26:44;;;;;;;19.50;12.75;;;;;;;3.49;88.37;99427.06;5105262;28;20288;-74
2022/12/05 10:29:21;;;;;;;21.13;12.38;;;;;;;3.47;88.13;99410.50;5105570;28;20055;-74
2022/12/05 10:31:50;;;;;;;21.85;14.07;;;;;;;3.48;88.10;99414.00;5105594;28;20081;-74
2022/12/05 10:34:25;;;;;;;20.42;12.45;;;;;;;3.48;88.10;99419.25;5105856;28;20077;-74
2022/12/05 10:36:57;;;;;;;18.80;12.07;;;;;;;3.48;87.96;99412.22;5104602;28;20036;-74
2022/12/05 10:39:25;;;;;;;17.52;12.30;;;;;;;3.49;88.08;99421.81;5105666;28;20040;-74
2022/12/05 10:41:52;;;;;;;20.75;12.88;;;;;;;3.49;87.88;99408.72;5106023;28;20089;-74
2022/12/05 10:44:19;;;;;;;19.67;12.95;;;;;;;3.49;87.91;99418.34;5104609;28;20093;-74
2022/12/05 10:46:46;;;;;;;21.95;13.55;;;;;;;3.29;87.97;99376.06;5104853;28;20327;-74
2022/12/05 10:49:13;;;;;;;21.33;13.50;;;;;;;3.29;87.66;99379.53;5105370;28;20222;-74
2022/12/05 10:51:41;;;;;;;19.70;12.85;;;;;;;3.50;87.96;99410.44;5105274;28;20059;-74
2022/12/05 10:54:17;;;;;;;17.55;12.48;;;;;;;3.00;87.79;99324.41;5105529;28;20090;-74
2022/12/05 10:56:47;;;;;;;19.98;12.70;;;;;;;3.50;87.97;99402.56;5109475;28;20043;-74
2022/12/05 10:59:16;;;;;;;19.75;13.27;;;;;;;3.16;87.94;99352.81;5109469;28;20332;-74
2022/12/05 11:01:49;;;;;;;18.13;12.60;;;;;;;3.51;87.87;99392.94;5108525;28;20063;-74
2022/12/05 11:04:29;;;;;;;17.60;12.75;;;;;;;3.53;87.89;99388.53;5109499;28;20051;-74
2022/12/05 11:06:59;;;;;;;20.20;12.77;;;;;;;3.56;88.01;99398.06;5108453;28;20043;-74
2022/12/05 11:09:29;;;;;;;19.52;12.65;;;;;;;3.40;87.80;99367.03;5109690;28;20075;-73
2022/12/05 11:12:15;;;;;;;18.40;12.77;;;;;;;3.56;87.96;99398.06;5109701;28;20055;-74
2022/12/05 11:14:54;;;;;;;18.40;12.75;;;;;;;0.68;87.50;98909.19;5109398;28;20073;-74
2022/12/05 11:17:25;;;;;;;25.02;13.40;;;;;;;3.56;87.94;99393.69;5109715;28;20280;-73
2022/12/05 11:19:52;;;;;;;18.23;13.10;;;;;;;3.58;87.82;99399.75;5109683;28;20059;-73
2022/12/05 11:22:19;;;;;;;20.50;14.57;;;;;;;3.62;88.00;99403.16;5109009;28;20047;-73
2022/12/05 11:24:45;;;;;;;19.75;13.68;;;;;;;3.61;87.94;99393.56;5109447;28;20329;-74
2022/12/05 11:27:28;;;;;;;20.58;13.38;;;;;;;3.58;88.13;99386.66;5109164;28;20058;-73
2022/12/05 11:29:58;;;;;;;21.67;13.18;;;;;;;3.59;88.15;99388.38;5108451;28;20040;-73
2022/12/05 11:32:27;;;;;;;20.48;14.73;;;;;;;3.60;88.09;99373.50;5110184;28;20058;-73
2022/12/05 11:34:58;;;;;;;20.65;13.23;;;;;;;3.61;88.04;99375.22;5109042;28;20040;-74
2022/12/05 11:37:28;;;;;;;20.17;12.93;;;;;;;3.40;88.31;99334.72;5108904;28;20231;-74
2022/12/05 11:39:55;;;;;;;21.42;13.07;;;;;;;3.59;88.38;99363.94;5108355;28;20040;-74
2022/12/05 11:42:36;;;;;;;21.73;14.15;;;;;;;3.60;88.45;99355.16;5107651;28;20127;-74